Baldwinville, Massachusetts
Current Conditions -  °F | °C
As of 1:52 PM on Tuesday 27 Jan 2015 (Local Time) from KORE Reporting Station
Light Snow Light Snow  
Wind Chill:   Ceiling: 4000
Heat Index: 17°   Visibility: 4mi
Dew Point:   Wind: 18mph
Humidity: 68%   Direction: 340°NNW
Pressure: 29.57"   Gusts: 29mph
Location:  42.62°N, 72.08°W
Report Text: KORE 271852Z AUTO 34016G25KT 4SM -SN OVC040 M08/M13 A2957 RMK AO2 PK WND 33027/1829 SLP024 P0000 T10831133 $
Loading
Personal Weather Stations






























Interactive Weather Map New forecast layout! Learn more

10-Day Weather Forecast

Advertisements
Track Severe Weather on mobile